Crew | Aerofun Virtual



 METAR AND TAF INFORMATION
METAR FOR EFHK
ADDS - METARS form results

(0322 UTC 23 September 2019)
Data provider http://aviationweather.gov/metar/data/
 
METAR text: EFHK 230320Z 29004KT CAVOK M00/M01 Q1023 NOSIG
Conditions at: EFHK (HELSINKI/VANTAA , FI) observed 0320 UTC 23 September 2019
Temperature: 0.0°C (32°F)
Dewpoint: -1.0°C (30°F) [RH = 93%]
Pressure (altimeter): 30.21 inches Hg (1023.0 mb)
Winds: from the WNW (290 degrees) at 5 MPH (4 knots; 2.1 m/s)
Visibility: 6 or more miles (10+ km)
Ceiling: ceiling and visibility are OK
Clouds: unknown
Weather: no significant weather observed at this time

METAR text: EFHK 230250Z 31006KT CAVOK M01/M02 Q1023 NOSIG
Conditions at: EFHK (HELSINKI/VANTAA , FI) observed 0250 UTC 23 September 2019
Temperature: -1.0°C (30°F)
Dewpoint: -2.0°C (28°F) [RH = 93%]
Pressure (altimeter): 30.21 inches Hg (1023.0 mb)
Winds: from the NW (310 degrees) at 7 MPH (6 knots; 3.1 m/s)
Visibility: 6 or more miles (10+ km)
Ceiling: ceiling and visibility are OK
Clouds: unknown
Weather: no significant weather observed at this time

Forecast for: EFHK (HELSINKI/VANTAA , FI)
Text: TAF EFHK 230234Z 2303/2403 32007KT CAVOK
Forecast period: 0300 UTC 23 September 2019 to 0300 UTC 24 September 2019
Forecast type: FROM: standard forecast or significant change
Winds: from the NW (320 degrees) at 8 MPH (7 knots; 3.6 m/s)
Visibility: 6 or more miles 10+ km)
Ceiling: unknown
Clouds: missing
Weather: NSW  (no significant weather)

 AIRPORT MAP

 RUNWAY INFORMATION
Runway 04L Runway length 10039 ft Runway width 197 ft
Runway elevation 133 ft Runway displaced threshold 0 ft Runway heading 48
Runway 22R Runway length 10039 ft Runway width 197 ft
Runway elevation 178 ft Runway displaced threshold 196 ft Runway heading 228
Runway 04R Runway length 11286 ft Runway width 197 ft
Runway elevation 150 ft Runway displaced threshold 787 ft Runway heading 48
Runway 22L Runway length 11286 ft Runway width 197 ft
Runway elevation 147 ft Runway displaced threshold 0 ft Runway heading 228
Runway 15 Runway length 9518 ft Runway width 197 ft
Runway elevation 162 ft Runway displaced threshold 0 ft Runway heading 154
Runway 33 Runway length 9518 ft Runway width 197 ft
Runway elevation 146 ft Runway displaced threshold 0 ft Runway heading 334

 AIRPORT FREQUENCIES
Type APP Name APP Frequency 119.1 MHZ
Type APP Name Frequency 129.85 MHZ
Type ATIS Name HEL VOR Frequency 114.2 MHZ
Type ATIS Name Frequency 135.075 MHZ
Type DEL Name Frequency 118.125 MHZ
Type GND Name GND Frequency 121.8 MHZ
Type PMSV Name PMSV METRO Frequency 125.1 MHZ
Type RMP Name RMP Frequency 121.65 MHZ
Type TWR Name 22L/04R an Frequency 118.6 MHZ
Type TWR Name 22R/04L Frequency 118.85 MHZ

 AIRPORT NEAR NAVIGATION AIDS
Type NDB Name Espoo Frequency 381 KHZ
Type VOR-DME Name Helsinki Frequency 114200 KHZ
Type NDB Name Korso Frequency 322 KHZ